sensor_id;sensor_type;location;lat;lon;timestamp;P1;durP1;ratioP1;P2;durP2;ratioP2
46561;SDS011;32289;42.688;23.330;2023-05-27T00:03:14;15.68;;;7.95;;
46561;SDS011;32289;42.688;23.330;2023-05-27T00:06:54;13.88;;;7.70;;
46561;SDS011;32289;42.688;23.330;2023-05-27T00:10:35;18.63;;;7.93;;
46561;SDS011;32289;42.688;23.330;2023-05-27T00:14:16;15.05;;;7.15;;
46561;SDS011;32289;42.688;23.330;2023-05-27T00:17:58;10.95;;;6.70;;
46561;SDS011;32289;42.688;23.330;2023-05-27T00:21:45;15.43;;;7.13;;
46561;SDS011;32289;42.688;23.330;2023-05-27T00:25:25;9.73;;;5.35;;
46561;SDS011;32289;42.688;23.330;2023-05-27T00:29:06;9.20;;;4.80;;
46561;SDS011;32289;42.688;23.330;2023-05-27T00:32:47;11.45;;;4.88;;
46561;SDS011;32289;42.688;23.330;2023-05-27T00:36:27;8.13;;;4.13;;
46561;SDS011;32289;42.688;23.330;2023-05-27T00:40:09;6.32;;;4.18;;
46561;SDS011;32289;42.688;23.330;2023-05-27T00:43:51;6.85;;;3.42;;
46561;SDS011;32289;42.688;23.330;2023-05-27T00:47:31;6.97;;;4.15;;
46561;SDS011;32289;42.688;23.330;2023-05-27T00:51:14;7.93;;;3.60;;
46561;SDS011;32289;42.688;23.330;2023-05-27T00:54:55;7.05;;;4.13;;
46561;SDS011;32289;42.688;23.330;2023-05-27T00:58:36;4.82;;;3.20;;
46561;SDS011;32289;42.688;23.330;2023-05-27T01:02:17;6.95;;;2.92;;
46561;SDS011;32289;42.688;23.330;2023-05-27T01:10:51;5.57;;;2.20;;
46561;SDS011;32289;42.688;23.330;2023-05-27T01:14:07;4.55;;;2.97;;
46561;SDS011;32289;42.688;23.330;2023-05-27T01:17:50;8.05;;;2.85;;
46561;SDS011;32289;42.688;23.330;2023-05-27T01:21:35;5.35;;;2.72;;
46561;SDS011;32289;42.688;23.330;2023-05-27T01:25:20;4.63;;;2.97;;
46561;SDS011;32289;42.688;23.330;2023-05-27T01:29:01;5.55;;;2.78;;
46561;SDS011;32289;42.688;23.330;2023-05-27T01:36:29;5.95;;;2.75;;
46561;SDS011;32289;42.688;23.330;2023-05-27T01:40:13;4.18;;;2.53;;
46561;SDS011;32289;42.688;23.330;2023-05-27T01:43:55;5.07;;;2.55;;
46561;SDS011;32289;42.688;23.330;2023-05-27T01:47:36;4.22;;;2.50;;
46561;SDS011;32289;42.688;23.330;2023-05-27T01:51:17;6.18;;;2.78;;
46561;SDS011;32289;42.688;23.330;2023-05-27T01:54:58;3.97;;;2.38;;
46561;SDS011;32289;42.688;23.330;2023-05-27T01:58:38;4.75;;;2.70;;
46561;SDS011;32289;42.688;23.330;2023-05-27T02:02:19;5.18;;;2.35;;
46561;SDS011;32289;42.688;23.330;2023-05-27T02:06:00;4.47;;;2.42;;
46561;SDS011;32289;42.688;23.330;2023-05-27T02:09:40;4.70;;;2.55;;
46561;SDS011;32289;42.688;23.330;2023-05-27T02:13:21;4.13;;;2.33;;
46561;SDS011;32289;42.688;23.330;2023-05-27T02:17:01;6.15;;;3.67;;
46561;SDS011;32289;42.688;23.330;2023-05-27T02:20:43;4.93;;;2.85;;
46561;SDS011;32289;42.688;23.330;2023-05-27T02:24:24;3.50;;;2.35;;
46561;SDS011;32289;42.688;23.330;2023-05-27T02:28:05;3.95;;;2.17;;
46561;SDS011;32289;42.688;23.330;2023-05-27T02:31:46;3.38;;;2.00;;
46561;SDS011;32289;42.688;23.330;2023-05-27T02:35:26;3.25;;;2.08;;
46561;SDS011;32289;42.688;23.330;2023-05-27T02:39:07;4.88;;;2.05;;
46561;SDS011;32289;42.688;23.330;2023-05-27T02:42:48;3.35;;;2.05;;
46561;SDS011;32289;42.688;23.330;2023-05-27T02:46:29;4.00;;;2.10;;
46561;SDS011;32289;42.688;23.330;2023-05-27T02:50:09;4.78;;;2.28;;
46561;SDS011;32289;42.688;23.330;2023-05-27T02:53:50;5.35;;;2.17;;
46561;SDS011;32289;42.688;23.330;2023-05-27T02:57:31;4.03;;;2.05;;
46561;SDS011;32289;42.688;23.330;2023-05-27T03:01:12;5.35;;;2.20;;
46561;SDS011;32289;42.688;23.330;2023-05-27T03:04:52;3.00;;;1.70;;
46561;SDS011;32289;42.688;23.330;2023-05-27T03:08:35;7.70;;;3.15;;
46561;SDS011;32289;42.688;23.330;2023-05-27T03:12:16;6.15;;;3.50;;
46561;SDS011;32289;42.688;23.330;2023-05-27T03:15:57;9.88;;;4.18;;
46561;SDS011;32289;42.688;23.330;2023-05-27T03:19:38;11.20;;;5.78;;
46561;SDS011;32289;42.688;23.330;2023-05-27T03:23:19;9.20;;;5.20;;
46561;SDS011;32289;42.688;23.330;2023-05-27T03:27:00;8.93;;;5.28;;
46561;SDS011;32289;42.688;23.330;2023-05-27T03:30:41;12.40;;;5.97;;
46561;SDS011;32289;42.688;23.330;2023-05-27T03:34:23;9.10;;;5.80;;
46561;SDS011;32289;42.688;23.330;2023-05-27T03:38:04;10.60;;;5.82;;
46561;SDS011;32289;42.688;23.330;2023-05-27T03:41:44;10.10;;;5.13;;
46561;SDS011;32289;42.688;23.330;2023-05-27T03:45:25;10.82;;;6.28;;
46561;SDS011;32289;42.688;23.330;2023-05-27T03:49:06;9.65;;;6.03;;
46561;SDS011;32289;42.688;23.330;2023-05-27T03:52:47;9.80;;;5.63;;
46561;SDS011;32289;42.688;23.330;2023-05-27T03:56:28;9.57;;;5.50;;
46561;SDS011;32289;42.688;23.330;2023-05-27T04:00:08;9.43;;;5.65;;
46561;SDS011;32289;42.688;23.330;2023-05-27T04:03:52;11.23;;;6.15;;
46561;SDS011;32289;42.688;23.330;2023-05-27T04:07:33;10.57;;;6.30;;
46561;SDS011;32289;42.688;23.330;2023-05-27T04:11:14;10.40;;;6.00;;
46561;SDS011;32289;42.688;23.330;2023-05-27T04:14:55;8.85;;;5.30;;
46561;SDS011;32289;42.688;23.330;2023-05-27T04:18:36;9.57;;;4.85;;
46561;SDS011;32289;42.688;23.330;2023-05-27T04:22:17;10.55;;;5.38;;
46561;SDS011;32289;42.688;23.330;2023-05-27T04:25:57;10.38;;;6.03;;
46561;SDS011;32289;42.688;23.330;2023-05-27T04:29:38;7.60;;;5.15;;
46561;SDS011;32289;42.688;23.330;2023-05-27T04:33:19;7.65;;;4.90;;
46561;SDS011;32289;42.688;23.330;2023-05-27T04:36:59;9.30;;;4.63;;
46561;SDS011;32289;42.688;23.330;2023-05-27T04:40:41;8.70;;;3.92;;
46561;SDS011;32289;42.688;23.330;2023-05-27T04:44:32;7.93;;;4.22;;
46561;SDS011;32289;42.688;23.330;2023-05-27T04:48:13;7.57;;;4.00;;
46561;SDS011;32289;42.688;23.330;2023-05-27T04:51:54;8.05;;;4.35;;
46561;SDS011;32289;42.688;23.330;2023-05-27T04:55:35;6.63;;;2.97;;
46561;SDS011;32289;42.688;23.330;2023-05-27T04:59:17;5.88;;;3.50;;
46561;SDS011;32289;42.688;23.330;2023-05-27T05:03:00;5.30;;;3.28;;
46561;SDS011;32289;42.688;23.330;2023-05-27T05:06:41;6.00;;;3.47;;
46561;SDS011;32289;42.688;23.330;2023-05-27T05:10:23;8.77;;;3.22;;
46561;SDS011;32289;42.688;23.330;2023-05-27T05:14:04;6.15;;;3.28;;
46561;SDS011;32289;42.688;23.330;2023-05-27T05:17:45;5.13;;;2.95;;
46561;SDS011;32289;42.688;23.330;2023-05-27T05:21:25;6.85;;;3.42;;
46561;SDS011;32289;42.688;23.330;2023-05-27T05:25:06;7.07;;;2.75;;
46561;SDS011;32289;42.688;23.330;2023-05-27T05:28:47;5.25;;;3.20;;
46561;SDS011;32289;42.688;23.330;2023-05-27T05:32:28;3.90;;;2.63;;
46561;SDS011;32289;42.688;23.330;2023-05-27T05:36:09;6.80;;;4.05;;
46561;SDS011;32289;42.688;23.330;2023-05-27T05:39:49;7.70;;;3.85;;
46561;SDS011;32289;42.688;23.330;2023-05-27T05:43:30;6.10;;;3.47;;
46561;SDS011;32289;42.688;23.330;2023-05-27T05:47:11;5.30;;;3.03;;
46561;SDS011;32289;42.688;23.330;2023-05-27T05:50:52;6.63;;;3.72;;
46561;SDS011;32289;42.688;23.330;2023-05-27T05:54:32;7.05;;;3.65;;
46561;SDS011;32289;42.688;23.330;2023-05-27T05:58:13;8.02;;;3.88;;
46561;SDS011;32289;42.688;23.330;2023-05-27T06:01:54;6.32;;;3.22;;
46561;SDS011;32289;42.688;23.330;2023-05-27T06:05:34;5.07;;;3.28;;
46561;SDS011;32289;42.688;23.330;2023-05-27T06:09:15;8.63;;;4.80;;
46561;SDS011;32289;42.688;23.330;2023-05-27T06:12:56;10.73;;;4.35;;
46561;SDS011;32289;42.688;23.330;2023-05-27T06:16:36;7.93;;;4.50;;
46561;SDS011;32289;42.688;23.330;2023-05-27T06:20:19;6.20;;;3.78;;
46561;SDS011;32289;42.688;23.330;2023-05-27T06:24:00;8.68;;;4.68;;
46561;SDS011;32289;42.688;23.330;2023-05-27T06:27:41;7.25;;;4.50;;
46561;SDS011;32289;42.688;23.330;2023-05-27T06:31:22;6.97;;;4.03;;
46561;SDS011;32289;42.688;23.330;2023-05-27T06:35:02;8.45;;;4.70;;
46561;SDS011;32289;42.688;23.330;2023-05-27T06:38:44;8.68;;;4.80;;
46561;SDS011;32289;42.688;23.330;2023-05-27T06:42:25;8.80;;;4.40;;
46561;SDS011;32289;42.688;23.330;2023-05-27T06:46:05;7.75;;;4.93;;
46561;SDS011;32289;42.688;23.330;2023-05-27T06:49:46;8.43;;;4.43;;
46561;SDS011;32289;42.688;23.330;2023-05-27T06:53:27;5.75;;;3.38;;
46561;SDS011;32289;42.688;23.330;2023-05-27T06:57:07;9.10;;;4.07;;
46561;SDS011;32289;42.688;23.330;2023-05-27T07:00:48;9.05;;;3.85;;
46561;SDS011;32289;42.688;23.330;2023-05-27T07:04:29;6.50;;;4.43;;
46561;SDS011;32289;42.688;23.330;2023-05-27T07:08:10;12.50;;;4.18;;
46561;SDS011;32289;42.688;23.330;2023-05-27T07:11:50;5.93;;;4.07;;
46561;SDS011;32289;42.688;23.330;2023-05-27T07:15:31;9.70;;;4.35;;
46561;SDS011;32289;42.688;23.330;2023-05-27T07:19:12;13.90;;;6.10;;
46561;SDS011;32289;42.688;23.330;2023-05-27T07:22:53;13.23;;;5.38;;
46561;SDS011;32289;42.688;23.330;2023-05-27T07:26:37;8.43;;;4.22;;
46561;SDS011;32289;42.688;23.330;2023-05-27T07:30:18;7.65;;;4.63;;
46561;SDS011;32289;42.688;23.330;2023-05-27T07:33:59;6.82;;;3.90;;
46561;SDS011;32289;42.688;23.330;2023-05-27T07:37:40;6.32;;;3.85;;
46561;SDS011;32289;42.688;23.330;2023-05-27T07:41:20;7.35;;;4.03;;
46561;SDS011;32289;42.688;23.330;2023-05-27T07:45:02;7.22;;;4.30;;
46561;SDS011;32289;42.688;23.330;2023-05-27T07:48:43;5.25;;;3.42;;
46561;SDS011;32289;42.688;23.330;2023-05-27T07:52:24;5.88;;;4.05;;
46561;SDS011;32289;42.688;23.330;2023-05-27T07:56:04;9.50;;;3.90;;
46561;SDS011;32289;42.688;23.330;2023-05-27T07:59:45;5.32;;;3.30;;
46561;SDS011;32289;42.688;23.330;2023-05-27T08:03:26;8.68;;;5.05;;
46561;SDS011;32289;42.688;23.330;2023-05-27T08:07:06;5.55;;;3.53;;
46561;SDS011;32289;42.688;23.330;2023-05-27T08:10:47;6.45;;;4.18;;
46561;SDS011;32289;42.688;23.330;2023-05-27T08:14:28;7.85;;;3.92;;
46561;SDS011;32289;42.688;23.330;2023-05-27T08:18:11;5.60;;;3.35;;
46561;SDS011;32289;42.688;23.330;2023-05-27T08:21:52;6.03;;;3.90;;
46561;SDS011;32289;42.688;23.330;2023-05-27T08:25:33;10.27;;;4.82;;
46561;SDS011;32289;42.688;23.330;2023-05-27T08:29:13;7.57;;;4.28;;
46561;SDS011;32289;42.688;23.330;2023-05-27T08:32:55;5.38;;;3.20;;
46561;SDS011;32289;42.688;23.330;2023-05-27T08:36:36;5.97;;;3.63;;
46561;SDS011;32289;42.688;23.330;2023-05-27T08:40:17;9.35;;;4.50;;
46561;SDS011;32289;42.688;23.330;2023-05-27T08:43:59;4.82;;;3.25;;
46561;SDS011;32289;42.688;23.330;2023-05-27T08:47:41;5.07;;;2.50;;
46561;SDS011;32289;42.688;23.330;2023-05-27T08:51:22;7.53;;;3.90;;
46561;SDS011;32289;42.688;23.330;2023-05-27T08:55:04;4.60;;;3.25;;
46561;SDS011;32289;42.688;23.330;2023-05-27T08:58:48;5.72;;;3.40;;
46561;SDS011;32289;42.688;23.330;2023-05-27T09:02:30;4.18;;;2.80;;
46561;SDS011;32289;42.688;23.330;2023-05-27T09:06:12;7.07;;;3.05;;
46561;SDS011;32289;42.688;23.330;2023-05-27T09:09:56;7.43;;;3.38;;
46561;SDS011;32289;42.688;23.330;2023-05-27T09:13:38;7.40;;;3.08;;
46561;SDS011;32289;42.688;23.330;2023-05-27T09:17:22;6.30;;;4.00;;
46561;SDS011;32289;42.688;23.330;2023-05-27T09:21:03;5.13;;;2.72;;
46561;SDS011;32289;42.688;23.330;2023-05-27T09:24:44;7.35;;;3.25;;
46561;SDS011;32289;42.688;23.330;2023-05-27T09:28:25;5.20;;;2.90;;
46561;SDS011;32289;42.688;23.330;2023-05-27T09:32:06;5.65;;;3.28;;
46561;SDS011;32289;42.688;23.330;2023-05-27T09:35:48;5.43;;;3.63;;
46561;SDS011;32289;42.688;23.330;2023-05-27T09:39:29;6.88;;;3.40;;
46561;SDS011;32289;42.688;23.330;2023-05-27T09:43:14;7.18;;;2.72;;
46561;SDS011;32289;42.688;23.330;2023-05-27T09:46:58;8.98;;;3.72;;
46561;SDS011;32289;42.688;23.330;2023-05-27T09:50:42;5.93;;;3.35;;
46561;SDS011;32289;42.688;23.330;2023-05-27T09:54:23;6.03;;;3.60;;
46561;SDS011;32289;42.688;23.330;2023-05-27T09:58:04;4.18;;;2.80;;
46561;SDS011;32289;42.688;23.330;2023-05-27T10:01:46;6.97;;;2.92;;
46561;SDS011;32289;42.688;23.330;2023-05-27T10:05:28;4.05;;;2.92;;
46561;SDS011;32289;42.688;23.330;2023-05-27T10:09:10;16.23;;;7.57;;
46561;SDS011;32289;42.688;23.330;2023-05-27T10:12:53;5.20;;;3.03;;
46561;SDS011;32289;42.688;23.330;2023-05-27T10:16:34;4.53;;;2.97;;
46561;SDS011;32289;42.688;23.330;2023-05-27T10:20:39;8.88;;;3.70;;
46561;SDS011;32289;42.688;23.330;2023-05-27T10:24:20;4.50;;;2.72;;
46561;SDS011;32289;42.688;23.330;2023-05-27T10:28:23;4.57;;;3.20;;
46561;SDS011;32289;42.688;23.330;2023-05-27T10:32:07;4.63;;;2.50;;
46561;SDS011;32289;42.688;23.330;2023-05-27T10:35:49;5.13;;;3.50;;
46561;SDS011;32289;42.688;23.330;2023-05-27T10:39:30;5.13;;;3.38;;
46561;SDS011;32289;42.688;23.330;2023-05-27T10:43:17;7.07;;;4.18;;
46561;SDS011;32289;42.688;23.330;2023-05-27T10:47:21;4.32;;;3.05;;
46561;SDS011;32289;42.688;23.330;2023-05-27T10:54:49;4.25;;;3.05;;
46561;SDS011;32289;42.688;23.330;2023-05-27T10:58:33;3.42;;;2.38;;
46561;SDS011;32289;42.688;23.330;2023-05-27T11:02:17;5.32;;;2.33;;
46561;SDS011;32289;42.688;23.330;2023-05-27T11:06:02;4.38;;;2.75;;
46561;SDS011;32289;42.688;23.330;2023-05-27T11:09:45;6.30;;;3.53;;
46561;SDS011;32289;42.688;23.330;2023-05-27T11:13:31;7.50;;;3.72;;
46561;SDS011;32289;42.688;23.330;2023-05-27T11:17:15;4.28;;;3.03;;
46561;SDS011;32289;42.688;23.330;2023-05-27T11:20:57;4.00;;;3.00;;
46561;SDS011;32289;42.688;23.330;2023-05-27T11:24:38;6.78;;;4.43;;
46561;SDS011;32289;42.688;23.330;2023-05-27T11:28:19;5.35;;;3.20;;
46561;SDS011;32289;42.688;23.330;2023-05-27T11:32:00;6.45;;;3.45;;
46561;SDS011;32289;42.688;23.330;2023-05-27T11:35:41;5.18;;;3.90;;
46561;SDS011;32289;42.688;23.330;2023-05-27T11:39:22;7.50;;;3.17;;
46561;SDS011;32289;42.688;23.330;2023-05-27T11:43:03;3.90;;;2.30;;
46561;SDS011;32289;42.688;23.330;2023-05-27T11:46:44;3.83;;;2.60;;
46561;SDS011;32289;42.688;23.330;2023-05-27T11:50:28;7.80;;;3.22;;
46561;SDS011;32289;42.688;23.330;2023-05-27T11:54:28;6.47;;;2.92;;
46561;SDS011;32289;42.688;23.330;2023-05-27T11:58:10;4.70;;;2.80;;
46561;SDS011;32289;42.688;23.330;2023-05-27T12:01:51;5.35;;;3.17;;
46561;SDS011;32289;42.688;23.330;2023-05-27T12:05:35;5.10;;;3.45;;
46561;SDS011;32289;42.688;23.330;2023-05-27T12:09:16;4.55;;;3.03;;
46561;SDS011;32289;42.688;23.330;2023-05-27T12:13:03;5.03;;;2.67;;
46561;SDS011;32289;42.688;23.330;2023-05-27T12:16:44;8.15;;;3.40;;
46561;SDS011;32289;42.688;23.330;2023-05-27T12:20:25;7.20;;;4.22;;
46561;SDS011;32289;42.688;23.330;2023-05-27T12:24:07;4.65;;;3.33;;
46561;SDS011;32289;42.688;23.330;2023-05-27T12:27:48;7.10;;;3.33;;
46561;SDS011;32289;42.688;23.330;2023-05-27T12:31:28;6.47;;;3.42;;
46561;SDS011;32289;42.688;23.330;2023-05-27T12:35:09;6.35;;;3.20;;
46561;SDS011;32289;42.688;23.330;2023-05-27T12:38:50;5.57;;;2.38;;
46561;SDS011;32289;42.688;23.330;2023-05-27T12:42:30;3.63;;;2.40;;
46561;SDS011;32289;42.688;23.330;2023-05-27T12:46:12;6.75;;;2.78;;
46561;SDS011;32289;42.688;23.330;2023-05-27T12:49:53;4.55;;;3.42;;
46561;SDS011;32289;42.688;23.330;2023-05-27T12:53:34;5.53;;;3.30;;
46561;SDS011;32289;42.688;23.330;2023-05-27T12:57:15;6.05;;;2.90;;
46561;SDS011;32289;42.688;23.330;2023-05-27T13:00:58;5.00;;;3.40;;
46561;SDS011;32289;42.688;23.330;2023-05-27T13:04:39;3.70;;;2.75;;
46561;SDS011;32289;42.688;23.330;2023-05-27T13:08:20;3.28;;;2.65;;
46561;SDS011;32289;42.688;23.330;2023-05-27T13:12:01;4.13;;;2.65;;
46561;SDS011;32289;42.688;23.330;2023-05-27T13:15:42;4.65;;;2.50;;
46561;SDS011;32289;42.688;23.330;2023-05-27T13:19:23;7.97;;;2.90;;
46561;SDS011;32289;42.688;23.330;2023-05-27T13:23:04;5.05;;;2.65;;
46561;SDS011;32289;42.688;23.330;2023-05-27T13:26:45;3.58;;;2.40;;
46561;SDS011;32289;42.688;23.330;2023-05-27T13:30:26;4.93;;;3.28;;
46561;SDS011;32289;42.688;23.330;2023-05-27T13:34:07;5.47;;;2.95;;
46561;SDS011;32289;42.688;23.330;2023-05-27T13:37:51;5.38;;;2.83;;
46561;SDS011;32289;42.688;23.330;2023-05-27T13:41:35;6.05;;;2.97;;
46561;SDS011;32289;42.688;23.330;2023-05-27T13:45:18;6.93;;;3.35;;
46561;SDS011;32289;42.688;23.330;2023-05-27T13:49:02;4.82;;;3.03;;
46561;SDS011;32289;42.688;23.330;2023-05-27T13:52:43;3.90;;;2.80;;
46561;SDS011;32289;42.688;23.330;2023-05-27T13:56:25;3.45;;;2.83;;
46561;SDS011;32289;42.688;23.330;2023-05-27T14:00:06;4.15;;;2.83;;
46561;SDS011;32289;42.688;23.330;2023-05-27T14:03:47;3.28;;;2.38;;
46561;SDS011;32289;42.688;23.330;2023-05-27T14:07:28;6.55;;;3.28;;
46561;SDS011;32289;42.688;23.330;2023-05-27T14:11:09;3.83;;;2.67;;
46561;SDS011;32289;42.688;23.330;2023-05-27T14:14:50;4.45;;;2.80;;
46561;SDS011;32289;42.688;23.330;2023-05-27T14:18:55;4.45;;;2.80;;
46561;SDS011;32289;42.688;23.330;2023-05-27T14:22:36;9.95;;;3.35;;
46561;SDS011;32289;42.688;23.330;2023-05-27T14:26:17;5.43;;;3.42;;
46561;SDS011;32289;42.688;23.330;2023-05-27T14:29:58;5.95;;;3.28;;
46561;SDS011;32289;42.688;23.330;2023-05-27T14:33:39;7.78;;;3.92;;
46561;SDS011;32289;42.688;23.330;2023-05-27T14:37:19;6.13;;;3.88;;
46561;SDS011;32289;42.688;23.330;2023-05-27T14:41:00;4.97;;;2.90;;
46561;SDS011;32289;42.688;23.330;2023-05-27T14:44:41;8.23;;;3.60;;
46561;SDS011;32289;42.688;23.330;2023-05-27T14:48:22;3.95;;;2.58;;
46561;SDS011;32289;42.688;23.330;2023-05-27T14:52:02;6.55;;;3.55;;
46561;SDS011;32289;42.688;23.330;2023-05-27T14:55:43;3.63;;;2.85;;
46561;SDS011;32289;42.688;23.330;2023-05-27T14:59:24;5.75;;;2.78;;
46561;SDS011;32289;42.688;23.330;2023-05-27T15:03:06;4.28;;;2.75;;
46561;SDS011;32289;42.688;23.330;2023-05-27T15:06:47;4.32;;;2.45;;
46561;SDS011;32289;42.688;23.330;2023-05-27T15:10:28;4.45;;;2.88;;
46561;SDS011;32289;42.688;23.330;2023-05-27T15:14:09;5.35;;;3.50;;
46561;SDS011;32289;42.688;23.330;2023-05-27T15:17:49;5.72;;;3.72;;
46561;SDS011;32289;42.688;23.330;2023-05-27T15:21:30;5.38;;;2.88;;
46561;SDS011;32289;42.688;23.330;2023-05-27T15:25:11;4.07;;;2.88;;
46561;SDS011;32289;42.688;23.330;2023-05-27T15:28:52;4.50;;;2.90;;
46561;SDS011;32289;42.688;23.330;2023-05-27T15:32:33;5.20;;;2.45;;
46561;SDS011;32289;42.688;23.330;2023-05-27T15:36:13;5.10;;;2.85;;
46561;SDS011;32289;42.688;23.330;2023-05-27T15:40:17;4.53;;;2.78;;
46561;SDS011;32289;42.688;23.330;2023-05-27T15:43:58;4.72;;;3.42;;
46561;SDS011;32289;42.688;23.330;2023-05-27T15:47:39;5.85;;;2.78;;
46561;SDS011;32289;42.688;23.330;2023-05-27T15:51:19;6.05;;;3.20;;
46561;SDS011;32289;42.688;23.330;2023-05-27T15:55:00;5.57;;;3.00;;
46561;SDS011;32289;42.688;23.330;2023-05-27T15:58:41;5.10;;;3.17;;
46561;SDS011;32289;42.688;23.330;2023-05-27T16:02:22;6.32;;;3.10;;
46561;SDS011;32289;42.688;23.330;2023-05-27T16:06:02;5.72;;;3.38;;
46561;SDS011;32289;42.688;23.330;2023-05-27T16:09:46;6.57;;;3.20;;
46561;SDS011;32289;42.688;23.330;2023-05-27T16:13:27;5.93;;;3.58;;
46561;SDS011;32289;42.688;23.330;2023-05-27T16:17:07;5.82;;;3.78;;
46561;SDS011;32289;42.688;23.330;2023-05-27T16:20:48;6.07;;;3.90;;
46561;SDS011;32289;42.688;23.330;2023-05-27T16:24:30;5.22;;;3.30;;
46561;SDS011;32289;42.688;23.330;2023-05-27T16:28:11;7.82;;;3.90;;
46561;SDS011;32289;42.688;23.330;2023-05-27T16:31:52;8.25;;;4.05;;
46561;SDS011;32289;42.688;23.330;2023-05-27T16:35:32;8.30;;;3.65;;
46561;SDS011;32289;42.688;23.330;2023-05-27T16:39:13;5.60;;;3.53;;
46561;SDS011;32289;42.688;23.330;2023-05-27T16:42:54;5.25;;;3.15;;
46561;SDS011;32289;42.688;23.330;2023-05-27T16:46:35;8.23;;;4.95;;
46561;SDS011;32289;42.688;23.330;2023-05-27T16:50:16;8.88;;;4.57;;
46561;SDS011;32289;42.688;23.330;2023-05-27T16:53:57;7.63;;;4.35;;
46561;SDS011;32289;42.688;23.330;2023-05-27T16:57:37;12.15;;;5.10;;
46561;SDS011;32289;42.688;23.330;2023-05-27T17:01:18;13.60;;;10.60;;
46561;SDS011;32289;42.688;23.330;2023-05-27T17:04:59;16.13;;;10.10;;
46561;SDS011;32289;42.688;23.330;2023-05-27T17:08:39;8.45;;;5.63;;
46561;SDS011;32289;42.688;23.330;2023-05-27T17:12:20;12.80;;;5.90;;
46561;SDS011;32289;42.688;23.330;2023-05-27T17:16:01;11.10;;;7.13;;
46561;SDS011;32289;42.688;23.330;2023-05-27T17:19:42;8.57;;;4.93;;
46561;SDS011;32289;42.688;23.330;2023-05-27T17:23:25;12.02;;;7.47;;
46561;SDS011;32289;42.688;23.330;2023-05-27T17:27:09;12.82;;;5.97;;
46561;SDS011;32289;42.688;23.330;2023-05-27T17:30:50;7.78;;;4.30;;
46561;SDS011;32289;42.688;23.330;2023-05-27T17:34:31;8.25;;;4.38;;
46561;SDS011;32289;42.688;23.330;2023-05-27T17:38:12;8.25;;;4.75;;
46561;SDS011;32289;42.688;23.330;2023-05-27T17:41:53;10.02;;;5.57;;
46561;SDS011;32289;42.688;23.330;2023-05-27T17:45:33;10.40;;;5.78;;
46561;SDS011;32289;42.688;23.330;2023-05-27T17:49:14;10.10;;;5.70;;
46561;SDS011;32289;42.688;23.330;2023-05-27T17:52:55;9.55;;;5.30;;
46561;SDS011;32289;42.688;23.330;2023-05-27T17:56:36;10.93;;;5.85;;
46561;SDS011;32289;42.688;23.330;2023-05-27T18:00:16;9.80;;;5.47;;
46561;SDS011;32289;42.688;23.330;2023-05-27T18:03:57;16.65;;;9.38;;
46561;SDS011;32289;42.688;23.330;2023-05-27T18:07:38;24.20;;;12.13;;
46561;SDS011;32289;42.688;23.330;2023-05-27T18:11:20;28.40;;;11.90;;
46561;SDS011;32289;42.688;23.330;2023-05-27T18:15:01;16.05;;;8.50;;
46561;SDS011;32289;42.688;23.330;2023-05-27T18:18:42;11.02;;;6.28;;
46561;SDS011;32289;42.688;23.330;2023-05-27T18:22:23;12.15;;;6.43;;
46561;SDS011;32289;42.688;23.330;2023-05-27T18:26:07;14.27;;;8.55;;
46561;SDS011;32289;42.688;23.330;2023-05-27T18:29:50;13.35;;;7.30;;
46561;SDS011;32289;42.688;23.330;2023-05-27T18:33:30;8.90;;;5.53;;
46561;SDS011;32289;42.688;23.330;2023-05-27T18:37:11;12.52;;;5.93;;
46561;SDS011;32289;42.688;23.330;2023-05-27T18:40:55;14.68;;;6.97;;
46561;SDS011;32289;42.688;23.330;2023-05-27T18:44:38;10.45;;;5.75;;
46561;SDS011;32289;42.688;23.330;2023-05-27T18:48:20;11.68;;;6.13;;
46561;SDS011;32289;42.688;23.330;2023-05-27T18:52:02;16.65;;;7.45;;
46561;SDS011;32289;42.688;23.330;2023-05-27T18:55:45;9.80;;;5.57;;
46561;SDS011;32289;42.688;23.330;2023-05-27T18:59:26;8.48;;;5.47;;
46561;SDS011;32289;42.688;23.330;2023-05-27T19:03:07;5.47;;;3.53;;
46561;SDS011;32289;42.688;23.330;2023-05-27T19:06:49;5.47;;;2.30;;
46561;SDS011;32289;42.688;23.330;2023-05-27T19:10:30;3.40;;;1.67;;
46561;SDS011;32289;42.688;23.330;2023-05-27T19:14:10;3.75;;;2.00;;
46561;SDS011;32289;42.688;23.330;2023-05-27T19:17:51;5.70;;;1.63;;
46561;SDS011;32289;42.688;23.330;2023-05-27T19:21:32;7.88;;;2.38;;
46561;SDS011;32289;42.688;23.330;2023-05-27T19:25:12;5.30;;;2.75;;
46561;SDS011;32289;42.688;23.330;2023-05-27T19:28:53;15.20;;;3.88;;
46561;SDS011;32289;42.688;23.330;2023-05-27T19:32:35;6.00;;;3.22;;
46561;SDS011;32289;42.688;23.330;2023-05-27T19:36:16;6.63;;;3.42;;
46561;SDS011;32289;42.688;23.330;2023-05-27T19:39:57;8.85;;;4.90;;
46561;SDS011;32289;42.688;23.330;2023-05-27T19:43:40;10.77;;;5.47;;
46561;SDS011;32289;42.688;23.330;2023-05-27T19:47:21;7.32;;;4.18;;
46561;SDS011;32289;42.688;23.330;2023-05-27T19:51:02;8.00;;;3.40;;
46561;SDS011;32289;42.688;23.330;2023-05-27T19:54:42;8.63;;;3.25;;
46561;SDS011;32289;42.688;23.330;2023-05-27T19:58:23;5.40;;;2.47;;
46561;SDS011;32289;42.688;23.330;2023-05-27T20:02:04;8.73;;;4.53;;
46561;SDS011;32289;42.688;23.330;2023-05-27T20:05:46;5.57;;;2.75;;
46561;SDS011;32289;42.688;23.330;2023-05-27T20:09:30;5.55;;;3.47;;
46561;SDS011;32289;42.688;23.330;2023-05-27T20:13:11;6.15;;;3.20;;
46561;SDS011;32289;42.688;23.330;2023-05-27T20:16:52;6.97;;;3.38;;
46561;SDS011;32289;42.688;23.330;2023-05-27T20:20:33;5.55;;;3.40;;
46561;SDS011;32289;42.688;23.330;2023-05-27T20:24:16;5.45;;;3.78;;
46561;SDS011;32289;42.688;23.330;2023-05-27T20:27:59;9.73;;;3.47;;
46561;SDS011;32289;42.688;23.330;2023-05-27T20:31:41;5.55;;;3.13;;
46561;SDS011;32289;42.688;23.330;2023-05-27T20:35:22;8.52;;;4.22;;
46561;SDS011;32289;42.688;23.330;2023-05-27T20:39:03;8.77;;;4.55;;
46561;SDS011;32289;42.688;23.330;2023-05-27T20:42:43;9.27;;;4.40;;
46561;SDS011;32289;42.688;23.330;2023-05-27T20:46:24;5.63;;;3.42;;
46561;SDS011;32289;42.688;23.330;2023-05-27T20:50:08;6.60;;;3.20;;
46561;SDS011;32289;42.688;23.330;2023-05-27T20:53:50;9.10;;;3.72;;
46561;SDS011;32289;42.688;23.330;2023-05-27T20:57:36;6.55;;;4.13;;
46561;SDS011;32289;42.688;23.330;2023-05-27T21:01:16;7.60;;;4.68;;
46561;SDS011;32289;42.688;23.330;2023-05-27T21:04:57;8.70;;;4.07;;
46561;SDS011;32289;42.688;23.330;2023-05-27T21:08:38;6.97;;;3.88;;
46561;SDS011;32289;42.688;23.330;2023-05-27T21:12:19;9.80;;;4.25;;
46561;SDS011;32289;42.688;23.330;2023-05-27T21:15:59;7.80;;;4.20;;
46561;SDS011;32289;42.688;23.330;2023-05-27T21:19:40;6.63;;;4.05;;
46561;SDS011;32289;42.688;23.330;2023-05-27T21:23:22;7.43;;;4.25;;
46561;SDS011;32289;42.688;23.330;2023-05-27T21:27:03;7.93;;;4.03;;
46561;SDS011;32289;42.688;23.330;2023-05-27T21:30:44;5.80;;;3.58;;
46561;SDS011;32289;42.688;23.330;2023-05-27T21:34:24;7.53;;;3.92;;
46561;SDS011;32289;42.688;23.330;2023-05-27T21:38:05;6.55;;;3.65;;
46561;SDS011;32289;42.688;23.330;2023-05-27T21:41:46;5.57;;;3.25;;
46561;SDS011;32289;42.688;23.330;2023-05-27T21:45:27;6.55;;;3.30;;
46561;SDS011;32289;42.688;23.330;2023-05-27T21:49:08;5.75;;;3.60;;
46561;SDS011;32289;42.688;23.330;2023-05-27T21:52:49;6.10;;;3.65;;
46561;SDS011;32289;42.688;23.330;2023-05-27T21:56:29;6.80;;;3.80;;
46561;SDS011;32289;42.688;23.330;2023-05-27T22:00:11;8.50;;;4.70;;
46561;SDS011;32289;42.688;23.330;2023-05-27T22:03:56;9.93;;;5.25;;
46561;SDS011;32289;42.688;23.330;2023-05-27T22:07:36;15.98;;;7.07;;